EDHK/KEL METAR and TAF weather

Enter ICAO airport designator
Station Type Date Time Source
EDHK METAR 2019/02/22 15:20 UTC NOAA

EDHK 221520Z 11010KT CAVOK 05/M01 Q1041


Station Type Date Time Source
EDHK Decoded METAR 2019/02/22 15:20 UTC NOAA

Kiel / Holtenau Civilian, Germany (EDHK) 54-23N 010-10E
Feb 22, 2019 - 10:20 AM EST / 2019.02.22 1520 UTC
Wind: from the ESE (110 degrees) at 12 MPH (10 KT):0
Visibility: greater than 7 mile(s):0
Temperature: 41 F (5 C)
Dew Point: 30 F (-1 C)
Relative Humidity: 65%
Pressure (altimeter): 30.74 in. Hg (1041 hPa)
ob: EDHK 221520Z 11010KT CAVOK 05/M01 Q1041
cycle: 15

Station Type Date Time Source
EDHK TAF 2013/08/11 06:39 UTC NOAA

TAF EDHK 110633Z 1106/1118 24005KT 9999 SCT030
BECMG 1106/1109 25010KT
TEMPO 1106/1118 27015G25KT 4500 SHRA BKN012CB


Example: see airport list